White Mountain Summit Weather observations

Data are for 10 minute period ending at time listed.
 Day   Time   Solar   Ave.   Ave.  Ave.  Vector    Max.    Baro.  
  of    of     Rad.   Air    Rel.  Wind   Wind     Wind   Press.  
Year   Day            Temp.  Hum.  Speed  Dir.     Gust           
2015   (PST)   W/m2    F      %     mph   deg.      mph     mb.   
-------------------------------------------------------------------
 242    7:00  1691.0    34   32.5    30    251.8    33.0   604.9 
 242    7:10  2019.0    34   32.0    29    254.7    30.6   604.9 
 242    7:20  1770.0    34   31.7    33    255.6    40.0   604.8 
 242    7:30  1209.0    35   30.8    33    258.4    37.7   604.8 
 242    7:40  605.0    36   29.5    33    261.8    40.0   604.9 
 242    7:50  501.0    36   29.5    32    264.1    37.7   605.0 
 242    8:00  543.0    36   30.0    33    258.8    37.7   604.9 
 242    8:10  806.0    36   30.6    34    259.7    40.0   604.9 
 242    8:20  630.0    36   29.7    38    260.1    42.4   604.9 
 242    8:30  709.0    36   30.4    36    259.3    44.7   604.9 
 242    8:40  754.0    36   31.6    29    263.5    35.3   605.1 
 242    8:50  702.0    36   32.3    29    264.5    35.3   605.1 
 242    9:00  659.0    36   33.0    28    265.3    35.3   605.2 
 242    9:10  656.0    37   33.7    27    262.1    35.3   605.2 
 242    9:20  603.0    38   35.2    24    267.7    30.6   605.4 
 242    9:30  642.0    38   36.3    21    266.6    28.2   605.5 
 242    9:40  537.0    38   36.8    20    259.9    25.9   605.6 
 242    9:50  608.0    39   37.2    19    264.0    28.2   605.7 
 242   10:00  531.0    39   36.5    18    258.9    28.2   605.8 
 242   10:10  620.0    41   34.4    21    267.4    28.2   605.7 
 242   10:20  679.0    41   31.7    23    267.4    30.6   605.8 
 242   10:30  674.0    42   29.4    22    266.3    30.6   605.8 
 242   10:40  697.0    42   31.8    20    267.9    25.9   605.9 
 242   10:50  580.0    43   31.4    20    267.0    23.5   605.9 
 242   11:00  661.0    44   29.6    19    266.4    23.5   605.9 
 242   11:10  609.0    45   30.3    18    266.0    23.5   606.0 
 242   11:20  514.0    45   30.7    17    266.6    21.2   606.0 
 242   11:30  356.0    46   30.0    17    264.5    23.5   606.0 
 242   11:40  319.0    46   26.8    20    265.7    25.9   606.0 
 242   11:50  323.0    46   25.3    20    266.2    23.5   606.0 
 242   12:00  287.0    47   23.5    19    265.2    23.5   606.0 
 242   12:10  241.0    47   23.2    19    264.2    25.9   606.1 
 242   12:20  229.0    47   23.2    16    266.4    21.2   606.1 
 242   12:30  513.0    48   22.2    12    265.2    16.5   606.2 
 242   12:40  552.0    49   21.8    16    263.7    25.9   606.2 
 242   12:50  554.0    50   23.0    14    264.0    21.2   606.3 
 242   13:00  504.0    50   23.4    14    268.1    23.5   606.2 
 242   13:10  546.0    50   24.9    14    264.7    25.9   606.3 
 242   13:20  603.0    50   24.9    14    267.2    21.2   606.3 
 242   13:30  498.0    50   24.0    17    269.8    25.9   606.3 
 242   13:40  501.0    50   24.5    13    265.7    23.5   606.3 
 242   13:50  466.0    51   25.2    14    264.6    21.2   606.2 
 242   14:00  484.0    52   25.3    17    265.7    23.5   606.2 
 242   14:10  541.0    52   23.4    13    269.6    18.8   606.2 
 242   14:20  440.0    52   24.4    15    267.7    23.5   606.2 
 242   14:30  471.0    52   24.0    18    266.1    25.9   606.1 
 242   14:40  420.0    52   23.4    15    267.2    21.2   606.1 
 242   14:50  412.0    52   23.5    15    267.5    23.5   606.0 
 242   15:00  411.0    52   23.5    16    262.4    23.5   606.1 
 242   15:10  424.0    52   23.5    17    264.3    23.5   606.1 
 242   15:20  425.0    52   23.4    19    265.0    25.9   606.1 
 242   15:30  519.0    51   23.6    18    270.4    25.9   606.1 
 242   15:40  520.0    51   23.0    19    264.6    25.9   606.0 
 242   15:50  583.0    51   21.9    16    266.1    23.5   606.0 
 242   16:00  648.0    51   21.1    17    267.5    25.9   606.0 
 242   16:10  662.0    50   21.4    20    267.0    28.2   606.0 
 242   16:20  523.0    50   22.4    17    267.6    28.2   605.9 
 242   16:30  513.0    49   23.7    18    266.2    23.5   605.9 
 242   16:40  534.0    50   24.3    22    266.2    28.2   605.8 
 242   16:50  533.0    50   23.6    21    266.0    28.2   605.8 
 242   17:00  496.0    49   24.0    22    266.4    30.6   605.8 
 242   17:10  509.0    49   24.0    21    266.9    30.6   605.8 
 242   17:20  495.0    48   23.5    22    265.3    25.9   605.7 
 242   17:30  527.0    48   22.5    19    266.5    25.9   605.7 
 242   17:40  547.0    48   22.7    22    268.6    33.0   605.6 
 242   17:50  527.0    47   23.2    22    264.8    35.3   605.5 
 242   18:00  456.0    47   23.5    20    268.2    25.9   605.5 
 242   18:10  524.0    46   25.1    20    266.4    25.9   605.5 
 242   18:20  578.0    46   25.0    20    263.5    25.9   605.5 
 242   18:30  613.0    45   25.9    17    265.5    21.2   605.6 
 242   18:40  430.0    44   27.9    16    265.6    21.2   605.6 
 242   18:50  376.0    44   29.5    16    266.3    21.2   605.6 
 242   19:00  485.0    43   30.5    13    263.9    18.8   605.6 
 242   19:10  483.0    43   31.4     7    268.4    11.8   605.8 
 242   19:20  452.0    43   34.0     7    262.3    11.8   605.8 
 242   19:30  407.0    43   34.5     8    262.0    11.8   605.9 
 242   19:40  422.0    43   37.1     7    251.8     9.4   605.9 
 242   19:50  414.0    41   40.6     4    186.3     9.4   606.0 
 242   20:00  324.0    41   47.3    12    140.4    16.5   606.0 
 242   20:10  1426.0    40   50.7    12    118.2    16.5   606.0 
 242   20:20  14980.0    40   50.1     4     24.2     7.1   605.9 
 242   20:30  18530.0    40   49.5     4    349.1     7.1   605.9 
 242   20:40  19160.0    40   49.6     4    353.9     7.1   605.8 
 242   20:50  19250.0    40   49.3     6     33.2    11.8   605.8 
 242   21:00  18880.0    39   50.2     7     30.8    11.8   605.7 
 242   21:10  19330.0    38   51.5    10     67.4    16.5   605.7 
 242   21:20  19530.0    38   51.7     8     72.4    11.8   605.7 
 242   21:30  19190.0    38   51.5     7     78.8    11.8   605.7 
 242   21:40  18370.0    37   52.4    14    103.8    21.2   605.6 
 242   21:50  17610.0    37   51.8    18    114.0    21.2   605.6 
 242   22:00  17150.0    37   52.7    21    129.7    23.5   605.6 
 242   22:10  17760.0    36   54.4    18    119.8    23.5   605.6 
 242   22:20  18340.0    36   55.9    20    122.5    23.5   605.5 
 242   22:30  18170.0    36   56.7    21    138.4    25.9   605.5 
 242   22:40  18300.0    36   57.3    17    161.7    23.5   605.5 
 242   22:50  17610.0    37   56.7    12    206.4    16.5   605.6 
 242   23:00  18220.0    37   58.4    10    222.0    14.1   605.6 
 242   23:10  18530.0    36   59.5    10    229.4    14.1   605.6 
 242   23:20  19460.0    37   59.4     8    232.7    11.8   605.6 
 242   23:30  19320.0    36   60.5     9    222.2    14.1   605.6 
 242   23:40  19200.0    36   61.5    10    200.8    14.1   605.6 
 242   23:50  19000.0    36   62.0    11    205.9    14.1   605.6 
 243    0:00  19370.0    35   64.3    11    201.8    14.1   605.6 
 243    0:10  19410.0    35   65.4    11    205.2    14.1   605.6 
 243    0:20  19770.0    35   67.5    11    199.8    14.1   605.6 
 243    0:30  18640.0    35   66.6    12    199.9    14.1   605.6 
 243    0:40  17750.0    35   65.9    12    207.7    16.5   605.5 
 243    0:50  16960.0    35   64.4    14    196.4    16.5   605.5 
 243    1:00  16800.0    35   65.7    13    203.6    16.5   605.5 
 243    1:10  16410.0    35   66.2    13    203.1    18.8   605.4 
 243    1:20  16110.0    35   66.5    15    210.9    18.8   605.3 
 243    1:30  16020.0    35   67.4    14    214.9    18.8   605.3 
 243    1:40  15810.0    35   66.9    15    204.6    18.8   605.2 
 243    1:50  15840.0    35   67.8    14    212.3    18.8   605.3 
 243    2:00  15850.0    35   68.5    14    208.4    18.8   605.4 
 243    2:10  15850.0    35   69.2    15    201.8    21.2   605.3 
 243    2:20  15790.0    35   69.5    15    198.5    21.2   605.2 
 243    2:30  15760.0    34   70.5    17    194.1    21.2   605.2 
 243    2:40  15750.0    34   71.3    17    200.9    21.2   605.1 
 243    2:50  15260.0    34   69.8    17    202.0    23.5   605.1 
 243    3:00  15060.0    34   69.3    18    195.6    21.2   605.1 
 243    3:10  15000.0    34   69.8    19    196.1    23.5   605.0 
 243    3:20  14900.0    34   69.7    18    195.9    23.5   605.0 
 243    3:30  14540.0    34   68.9    18    197.7    23.5   605.0 
 243    3:40  14350.0    34   68.8    18    198.2    23.5   605.0 
 243    3:50  14530.0    34   70.3    19    197.0    23.5   605.0 
 243    4:00  14450.0    34   70.5    20    192.5    23.5   605.0 
 243    4:10  14450.0    34   71.0    18    195.5    23.5   605.0 
 243    4:20  14330.0    34   70.6    19    193.2    23.5   605.0 
 243    4:30  14230.0    34   69.3    20    186.6    25.9   605.0 
 243    4:40  13650.0    34   68.2    21    182.7    25.9   605.0 
 243    4:50  13340.0    34   68.7    22    188.1    25.9   605.0 
 243    5:00  13450.0    34   70.3    20    195.3    23.5   605.0 
 243    5:10  13220.0    34   69.5    21    196.5    28.2   605.1 
 243    5:20  12510.0    34   67.2    21    200.2    25.9   605.1 
 243    5:30  12010.0    34   66.6    23    199.1    28.2   605.1 
 243    5:40  11380.0    34   66.3    24    192.1    30.6   605.1 
 243    5:50  4755.0    34   65.1    23    187.1    28.2   605.2 
 243    6:00  2408.0    34   63.9    21    191.7    28.2   605.3 
 243    6:10  1404.0    34   62.4    22    193.5    30.6   605.3 
 243    6:20  1100.0    34   63.9    22    186.1    28.2   605.4 
 243    6:30  842.0    34   63.0    22    189.8    28.2   605.4 
 243    6:40  1025.0    34   62.9    22    189.4    28.2   605.5 
 243    6:50  811.0    34   59.3    22    191.6    25.9   605.5 

Return to White Mountain graphs page.


Western Regional Climate Center,wrcc@dri.edu